Arcadia, Ohio
Current Conditions -  °F | °C
As of 2:53 AM on Sunday 26 Oct 2014 (Local Time) from KFDY Reporting Station
Haze Haze  
Wind Chill: 41°   Ceiling: Unl
Heat Index: 44°   Visibility: 5mi
Dew Point: 34°   Wind: 6mph
Humidity: 68%   Direction: 270°W
Pressure: 29.89"   Gusts: NA
Location:  41.11°N, 83.52°W
Report Text: KFDY 260653Z AUTO 27005KT 5SM HZ CLR 07/01 A2989 RMK AO2 SLP116 T00670011
Loading
Personal Weather Stations






























Interactive Weather Map
Tropical Storm Tracking
New forecast layout! Learn more

10-Day Weather Forecast

Advertisements
Track Severe Weather on mobile